createdAt,value
2022-10-17T00:00:57.708Z,51.83
2022-10-17T00:03:27.564Z,51.92
2022-10-17T00:05:55.375Z,51.60
2022-10-17T00:08:23.248Z,51.96
2022-10-17T00:11:03.112Z,52.62
2022-10-17T00:15:59.292Z,51.94
2022-10-17T00:18:26.732Z,51.92
2022-10-17T00:20:54.137Z,51.94
2022-10-17T00:23:21.759Z,52.14
2022-10-17T00:25:58.500Z,52.36
2022-10-17T00:28:26.060Z,52.19
2022-10-17T00:31:02.097Z,52.32
2022-10-17T00:33:31.070Z,52.06
2022-10-17T00:36:13.655Z,52.63
2022-10-17T00:38:45.423Z,52.11
2022-10-17T00:41:15.383Z,52.80
2022-10-17T00:44:04.705Z,52.98
2022-10-17T00:46:36.827Z,52.63
2022-10-17T00:49:11.033Z,52.59
2022-10-17T00:51:45.315Z,52.67
2022-10-17T00:54:15.231Z,52.08
2022-10-17T00:56:43.926Z,52.78
2022-10-17T00:59:13.797Z,52.96
2022-10-17T01:01:43.140Z,52.48
2022-10-17T01:04:10.676Z,52.61
2022-10-17T01:06:40.187Z,52.92
2022-10-17T01:09:07.666Z,52.92
2022-10-17T01:12:04.168Z,53.25
2022-10-17T01:14:56.358Z,52.59
2022-10-17T01:17:35.951Z,52.74
2022-10-17T01:20:26.512Z,53.36
2022-10-17T01:23:16.874Z,53.60
2022-10-17T01:26:23.144Z,53.64
2022-10-17T01:29:15.559Z,53.56
2022-10-17T01:31:49.077Z,53.40
2022-10-17T01:34:36.188Z,53.47
2022-10-17T01:37:16.386Z,54.24
2022-10-17T01:39:53.120Z,54.29
2022-10-17T01:42:27.678Z,53.75
2022-10-17T01:45:10.796Z,53.95
2022-10-17T01:47:41.142Z,53.78
2022-10-17T01:50:18.818Z,53.69
2022-10-17T01:52:53.139Z,53.90
2022-10-17T01:55:32.764Z,54.08
2022-10-17T01:58:34.898Z,54.17
2022-10-17T02:01:06.655Z,54.16
2022-10-17T02:03:35.348Z,54.15
2022-10-17T02:06:02.903Z,53.79
2022-10-17T02:08:43.237Z,54.01
2022-10-17T02:11:25.336Z,53.91
2022-10-17T02:17:00.061Z,53.76
2022-10-17T02:19:55.043Z,53.86
2022-10-17T02:22:31.819Z,53.34
2022-10-17T02:25:12.979Z,54.21
2022-10-17T02:28:15.924Z,53.62
2022-10-17T02:30:53.348Z,54.09
2022-10-17T02:33:44.083Z,53.84
2022-10-17T02:36:19.951Z,54.41
2022-10-17T02:38:49.087Z,54.10
2022-10-17T02:41:19.602Z,54.25
2022-10-17T02:43:50.167Z,54.15
2022-10-17T02:46:21.957Z,54.67
2022-10-17T02:48:57.631Z,54.68
2022-10-17T02:51:45.389Z,53.96
2022-10-17T02:54:39.627Z,54.32
2022-10-17T02:57:29.282Z,54.52
2022-10-17T03:00:00.171Z,54.42
2022-10-17T03:02:28.733Z,54.32
2022-10-17T03:04:56.875Z,54.30
2022-10-17T03:07:24.397Z,54.56
2022-10-17T03:09:51.823Z,54.68
2022-10-17T03:12:19.385Z,54.39
2022-10-17T03:14:46.911Z,54.26
2022-10-17T03:17:14.318Z,54.25
2022-10-17T03:19:41.930Z,54.60
2022-10-17T03:22:09.815Z,54.55
2022-10-17T03:24:38.150Z,54.25
2022-10-17T03:27:06.091Z,54.61
2022-10-17T03:29:33.689Z,54.86
2022-10-17T03:32:02.779Z,55.05
2022-10-17T03:34:30.302Z,55.01
2022-10-17T03:36:57.733Z,54.66
2022-10-17T03:39:27.643Z,54.52
2022-10-17T03:41:55.178Z,54.71
2022-10-17T03:44:22.679Z,54.58
2022-10-17T03:46:50.233Z,54.66
2022-10-17T03:49:18.446Z,54.34
2022-10-17T03:51:46.104Z,54.67
2022-10-17T03:54:15.763Z,54.54
2022-10-17T03:56:44.027Z,54.01
2022-10-17T03:59:15.495Z,54.57
2022-10-17T04:01:46.724Z,54.71
2022-10-17T04:04:14.470Z,54.92
2022-10-17T04:06:41.897Z,54.76
2022-10-17T04:09:12.932Z,54.23
2022-10-17T04:11:52.724Z,54.49
2022-10-17T04:14:21.585Z,54.74
2022-10-17T04:16:49.098Z,54.60
2022-10-17T04:19:20.879Z,54.74
2022-10-17T04:21:48.673Z,54.33
2022-10-17T04:24:16.535Z,54.64
2022-10-17T04:27:04.794Z,54.75
2022-10-17T04:29:34.610Z,54.63
2022-10-17T04:32:10.765Z,54.86
2022-10-17T04:34:50.243Z,54.51
2022-10-17T04:37:20.340Z,54.14
2022-10-17T04:39:50.330Z,54.57
2022-10-17T04:42:17.855Z,54.32
2022-10-17T04:44:46.426Z,54.36
2022-10-17T04:47:17.010Z,54.24
2022-10-17T04:49:45.131Z,53.81
2022-10-17T04:52:16.238Z,53.86
2022-10-17T04:54:45.444Z,53.93
2022-10-17T04:57:14.891Z,54.28
2022-10-17T04:59:48.624Z,54.42
2022-10-17T05:02:27.999Z,53.50
2022-10-17T05:04:56.416Z,53.77
2022-10-17T05:07:24.503Z,53.92
2022-10-17T05:10:18.238Z,53.48
2022-10-17T05:12:49.433Z,53.94
2022-10-17T05:15:19.114Z,53.86
2022-10-17T05:17:46.851Z,54.01
2022-10-17T05:20:14.372Z,53.82
2022-10-17T05:22:42.498Z,53.85
2022-10-17T05:25:11.812Z,53.71
2022-10-17T05:27:40.056Z,53.42
2022-10-17T05:30:10.080Z,53.95
2022-10-17T05:32:39.019Z,53.68
2022-10-17T05:35:06.967Z,53.97
2022-10-17T05:37:34.615Z,53.67
2022-10-17T05:40:04.085Z,53.75
2022-10-17T05:42:32.355Z,53.67
2022-10-17T05:45:00.298Z,53.77
2022-10-17T05:47:28.413Z,53.59
2022-10-17T05:49:56.260Z,53.21
2022-10-17T05:52:31.697Z,52.96
2022-10-17T05:55:10.897Z,53.23
2022-10-17T05:57:39.631Z,53.04
2022-10-17T06:00:11.662Z,53.13
2022-10-17T06:02:43.482Z,52.20
2022-10-17T06:05:14.610Z,52.24
2022-10-17T06:07:42.704Z,51.91
2022-10-17T06:10:13.004Z,52.17
2022-10-17T06:12:40.663Z,52.37
2022-10-17T06:15:08.911Z,52.74
2022-10-17T06:17:36.718Z,52.77
2022-10-17T06:20:05.023Z,52.66
2022-10-17T06:22:33.241Z,52.43
2022-10-17T06:25:02.334Z,52.68
2022-10-17T06:27:30.560Z,52.13
2022-10-17T06:29:58.120Z,52.10
2022-10-17T06:32:25.645Z,51.78
2022-10-17T06:34:53.080Z,51.67
2022-10-17T06:37:20.644Z,52.21
2022-10-17T06:39:48.656Z,51.98
2022-10-17T06:42:20.671Z,51.88
2022-10-17T06:45:09.215Z,52.09
2022-10-17T06:47:41.762Z,52.42
2022-10-17T06:50:26.725Z,52.17
2022-10-17T06:53:11.571Z,52.01
2022-10-17T06:56:01.501Z,52.04
2022-10-17T06:58:49.525Z,51.56
2022-10-17T07:01:31.505Z,51.52
2022-10-17T07:04:01.274Z,50.56
2022-10-17T07:06:30.394Z,50.43
2022-10-17T07:09:02.862Z,50.24
2022-10-17T07:11:30.498Z,50.18
2022-10-17T07:13:58.022Z,49.99
2022-10-17T07:16:28.115Z,50.05
2022-10-17T07:19:03.809Z,49.54
2022-10-17T07:21:38.949Z,49.66
2022-10-17T07:24:08.738Z,50.15
2022-10-17T07:26:36.444Z,50.33
2022-10-17T07:29:06.463Z,50.79
2022-10-17T07:31:45.696Z,50.72
2022-10-17T07:34:13.418Z,50.87
2022-10-17T07:36:41.271Z,50.97
2022-10-17T07:39:09.879Z,50.74
2022-10-17T07:41:38.704Z,50.86
2022-10-17T07:44:07.531Z,51.18
2022-10-17T07:46:40.801Z,51.45
2022-10-17T07:49:08.895Z,50.95
2022-10-17T07:51:36.657Z,51.09
2022-10-17T07:54:06.057Z,51.01
2022-10-17T07:56:33.643Z,51.55
2022-10-17T07:59:03.784Z,51.47
2022-10-17T08:01:34.255Z,51.85
2022-10-17T08:04:01.707Z,51.74
2022-10-17T08:06:38.550Z,52.95
2022-10-17T08:09:49.700Z,53.85
2022-10-17T08:20:29.587Z,57.27
2022-10-17T08:27:59.470Z,57.33
2022-10-17T08:39:29.005Z,57.20
2022-10-17T08:42:55.584Z,57.32
2022-10-17T08:46:05.950Z,57.94
2022-10-17T08:49:17.686Z,58.35
2022-10-17T08:56:49.019Z,58.29
2022-10-17T08:59:59.478Z,58.65
2022-10-17T09:02:58.827Z,58.36
2022-10-17T09:05:37.342Z,59.22
2022-10-17T09:08:21.172Z,60.05
2022-10-17T09:10:58.239Z,60.44
2022-10-17T09:13:31.213Z,61.98
2022-10-17T09:16:11.446Z,63.33
2022-10-17T09:18:47.928Z,62.74
2022-10-17T09:21:25.409Z,63.17
2022-10-17T09:24:08.905Z,64.49
2022-10-17T09:26:39.460Z,65.02
2022-10-17T09:29:17.767Z,66.53
2022-10-17T09:32:17.565Z,68.17
2022-10-17T09:34:45.522Z,66.23
2022-10-17T09:37:15.619Z,67.03
2022-10-17T09:39:44.258Z,67.22
2022-10-17T09:42:15.578Z,67.82
2022-10-17T09:44:54.674Z,67.46
2022-10-17T09:47:47.254Z,67.17
2022-10-17T09:50:26.368Z,67.71
2022-10-17T09:52:55.749Z,66.66
2022-10-17T09:55:49.465Z,68.31
2022-10-17T09:58:16.970Z,66.37
2022-10-17T10:00:47.675Z,67.00
2022-10-17T10:03:25.122Z,67.79
2022-10-17T10:06:08.050Z,67.46
2022-10-17T10:08:55.769Z,67.76
2022-10-17T10:11:43.589Z,66.64
2022-10-17T10:14:13.706Z,65.52
2022-10-17T10:16:43.980Z,65.27
2022-10-17T10:19:34.554Z,65.56
2022-10-17T10:22:14.652Z,64.79
2022-10-17T10:24:42.414Z,65.23
2022-10-17T10:27:18.216Z,65.78
2022-10-17T10:29:53.157Z,66.39
2022-10-17T10:32:22.629Z,66.01
2022-10-17T10:34:54.816Z,65.97
2022-10-17T10:37:40.111Z,65.00
2022-10-17T10:40:18.688Z,65.30
2022-10-17T10:42:55.296Z,65.63
2022-10-17T10:48:32.823Z,66.38
2022-10-17T10:51:12.582Z,66.17
2022-10-17T10:53:53.506Z,66.42
2022-10-17T10:56:22.528Z,65.79
2022-10-17T10:59:08.496Z,65.78
2022-10-17T11:01:44.989Z,65.59
2022-10-17T11:04:20.443Z,65.71
2022-10-17T11:06:51.371Z,65.74
2022-10-17T11:09:30.072Z,66.21
2022-10-17T11:12:34.180Z,66.79
2022-10-17T11:15:19.675Z,66.59
2022-10-17T11:17:59.769Z,65.67
2022-10-17T11:20:38.342Z,66.75
2022-10-17T11:23:21.576Z,67.28
2022-10-17T11:25:51.847Z,67.15
2022-10-17T11:28:22.336Z,67.51
2022-10-17T11:30:56.313Z,67.17
2022-10-17T11:34:07.164Z,67.13
2022-10-17T11:36:40.548Z,67.79
2022-10-17T11:39:15.241Z,68.07
2022-10-17T11:41:44.976Z,68.10
2022-10-17T11:44:32.290Z,67.62
2022-10-17T11:47:14.450Z,68.99
2022-10-17T11:49:50.742Z,68.63
2022-10-17T11:52:54.911Z,68.35
2022-10-17T11:55:23.594Z,67.79
2022-10-17T11:58:18.552Z,68.35
2022-10-17T12:00:48.883Z,68.05
2022-10-17T12:03:49.302Z,68.57
2022-10-17T12:06:20.335Z,68.29
2022-10-17T12:09:26.203Z,69.30
2022-10-17T12:12:02.445Z,69.73
2022-10-17T12:14:48.708Z,70.53
2022-10-17T12:17:39.235Z,70.52
2022-10-17T12:20:24.617Z,70.63
2022-10-17T12:23:13.048Z,70.03
2022-10-17T12:25:52.918Z,70.32
2022-10-17T12:28:44.853Z,70.10
2022-10-17T12:31:19.216Z,70.03
2022-10-17T12:33:46.639Z,69.72
2022-10-17T12:36:17.299Z,70.11
2022-10-17T12:38:49.877Z,70.07
2022-10-17T12:41:38.150Z,70.00
2022-10-17T12:44:14.974Z,71.34
2022-10-17T12:46:52.647Z,70.49
2022-10-17T12:49:38.494Z,70.93
2022-10-17T12:52:48.221Z,70.89
2022-10-17T12:55:20.148Z,70.75
2022-10-17T12:57:49.480Z,70.84
2022-10-17T13:00:22.399Z,71.31
2022-10-17T13:02:54.770Z,71.27
2022-10-17T13:05:30.008Z,71.60
2022-10-17T13:08:00.970Z,71.30
2022-10-17T13:10:31.061Z,70.69
2022-10-17T13:13:15.948Z,71.39
2022-10-17T13:15:51.594Z,71.53
2022-10-17T13:18:28.039Z,71.45
2022-10-17T13:21:05.460Z,71.47
2022-10-17T13:23:38.062Z,71.16
2022-10-17T13:26:31.944Z,71.97
2022-10-17T13:29:11.354Z,71.27
2022-10-17T13:31:41.352Z,70.93
2022-10-17T13:34:21.148Z,71.65
2022-10-17T13:36:53.575Z,71.22
2022-10-17T13:39:38.296Z,71.20
2022-10-17T13:42:39.507Z,72.11
2022-10-17T13:45:19.096Z,71.69
2022-10-17T13:47:47.269Z,70.80
2022-10-17T13:50:43.543Z,71.91
2022-10-17T13:53:33.458Z,71.40
2022-10-17T13:56:26.470Z,71.30
2022-10-17T13:58:51.320Z,71.55
2022-10-17T14:01:21.324Z,71.80
2022-10-17T14:03:57.015Z,71.69
2022-10-17T14:06:30.908Z,71.51
2022-10-17T14:09:01.894Z,71.70
2022-10-17T14:11:41.688Z,72.25
2022-10-17T14:14:22.296Z,72.12
2022-10-17T14:16:50.059Z,71.44
2022-10-17T14:19:30.655Z,71.77
2022-10-17T14:22:27.070Z,71.80
2022-10-17T14:24:58.023Z,71.21
2022-10-17T14:27:38.312Z,71.52
2022-10-17T14:31:01.687Z,71.71
2022-10-17T14:33:23.438Z,72.10
2022-10-17T14:35:53.005Z,72.16
2022-10-17T14:38:21.680Z,72.14
2022-10-17T14:41:04.805Z,73.08
2022-10-17T14:43:44.647Z,72.10
2022-10-17T14:46:15.964Z,72.38
2022-10-17T14:48:43.909Z,72.47
2022-10-17T14:51:17.042Z,72.85
2022-10-17T14:54:05.458Z,73.93
2022-10-17T14:56:42.145Z,73.86
2022-10-17T14:59:21.429Z,73.08
2022-10-17T15:01:53.149Z,72.93
2022-10-17T15:04:20.827Z,73.13
2022-10-17T15:06:54.564Z,73.88
2022-10-17T15:09:23.710Z,73.44
2022-10-17T15:11:51.110Z,73.24
2022-10-17T15:14:18.574Z,73.99
2022-10-17T15:16:46.044Z,73.84
2022-10-17T15:19:14.077Z,73.71
2022-10-17T15:21:46.164Z,73.81
2022-10-17T15:24:15.878Z,73.95
2022-10-17T15:26:43.495Z,73.79
2022-10-17T15:29:15.535Z,74.93
2022-10-17T15:31:43.034Z,74.31
2022-10-17T15:34:10.435Z,74.46
2022-10-17T15:36:43.018Z,74.85
2022-10-17T15:39:10.839Z,74.41
2022-10-17T15:41:38.244Z,74.44
2022-10-17T15:44:05.784Z,73.96
2022-10-17T15:46:35.066Z,74.27
2022-10-17T15:49:05.874Z,74.49
2022-10-17T15:51:33.650Z,74.89
2022-10-17T15:54:01.786Z,74.99
2022-10-17T15:56:41.484Z,75.28
2022-10-17T15:59:19.008Z,75.05
2022-10-17T16:01:46.348Z,75.68
2022-10-17T16:04:15.598Z,74.14
2022-10-17T16:06:43.611Z,73.66
2022-10-17T16:09:11.438Z,73.82
2022-10-17T16:11:41.945Z,74.23
2022-10-17T16:14:15.539Z,74.56
2022-10-17T16:16:43.412Z,73.69
2022-10-17T16:19:14.259Z,73.97
2022-10-17T16:21:41.931Z,74.13
2022-10-17T16:24:13.214Z,74.35
2022-10-17T16:26:41.502Z,73.92
2022-10-17T16:29:10.234Z,73.71
2022-10-17T16:31:42.096Z,73.49
2022-10-17T16:34:13.286Z,73.44
2022-10-17T16:36:41.359Z,73.45
2022-10-17T16:39:09.317Z,73.62
2022-10-17T16:41:38.818Z,73.54
2022-10-17T16:44:08.410Z,74.05
2022-10-17T16:46:37.398Z,73.37
2022-10-17T16:49:05.784Z,73.56
2022-10-17T16:51:36.593Z,73.43
2022-10-17T16:54:04.797Z,73.42
2022-10-17T16:56:33.072Z,73.17
2022-10-17T16:59:01.778Z,73.17
2022-10-17T17:01:30.263Z,73.11
2022-10-17T17:03:58.314Z,73.13
2022-10-17T17:06:28.597Z,73.12
2022-10-17T17:08:57.492Z,72.85
2022-10-17T17:11:27.563Z,72.82
2022-10-17T17:13:57.268Z,72.70
2022-10-17T17:16:26.904Z,72.60
2022-10-17T17:18:56.850Z,72.46
2022-10-17T17:21:25.109Z,72.30
2022-10-17T17:23:52.864Z,72.39
2022-10-17T17:26:22.315Z,72.41
2022-10-17T17:28:51.326Z,72.17
2022-10-17T17:31:27.999Z,72.43
2022-10-17T17:36:32.070Z,72.54
2022-10-17T17:39:01.554Z,72.52
2022-10-17T17:41:29.155Z,72.65
2022-10-17T17:43:57.280Z,72.90
2022-10-17T17:46:25.641Z,72.79
2022-10-17T17:48:54.495Z,73.36
2022-10-17T17:51:28.313Z,73.21
2022-10-17T17:53:57.492Z,72.88
2022-10-17T17:56:27.628Z,72.94
2022-10-17T17:58:57.545Z,73.06
2022-10-17T18:01:37.896Z,73.01
2022-10-17T18:04:08.786Z,72.84
2022-10-17T18:06:38.001Z,72.67
2022-10-17T18:09:07.127Z,72.81
2022-10-17T18:11:35.594Z,72.85
2022-10-17T18:14:06.049Z,73.33
2022-10-17T18:16:35.415Z,73.06
2022-10-17T18:19:06.785Z,73.07
2022-10-17T18:21:35.899Z,73.08
2022-10-17T18:24:04.987Z,73.09
2022-10-17T18:26:33.074Z,72.99
2022-10-17T18:29:01.015Z,73.16
2022-10-17T18:31:32.162Z,73.31
2022-10-17T18:34:02.784Z,73.19
2022-10-17T18:36:31.910Z,73.52
2022-10-17T18:39:00.643Z,73.52
2022-10-17T18:41:28.342Z,73.60
2022-10-17T18:43:57.043Z,73.74
2022-10-17T18:46:30.196Z,73.74
2022-10-17T18:48:58.106Z,73.50
2022-10-17T18:51:26.355Z,73.25
2022-10-17T18:54:02.402Z,73.25
2022-10-17T18:56:31.358Z,72.78
2022-10-17T18:58:58.867Z,72.90
2022-10-17T19:01:27.429Z,72.97
2022-10-17T19:03:57.041Z,73.26
2022-10-17T19:06:27.768Z,73.17
2022-10-17T19:08:55.274Z,73.09
2022-10-17T19:11:25.479Z,73.39
2022-10-17T19:13:54.146Z,73.40
2022-10-17T19:16:25.337Z,73.75
2022-10-17T19:18:55.940Z,73.63
2022-10-17T19:21:24.475Z,73.63
2022-10-17T19:23:57.790Z,73.95
2022-10-17T19:26:27.783Z,74.20
2022-10-17T19:28:56.103Z,74.28
2022-10-17T19:31:27.289Z,74.59
2022-10-17T19:33:56.370Z,74.40
2022-10-17T19:36:30.405Z,74.76
2022-10-17T19:39:08.607Z,75.03
2022-10-17T19:41:39.181Z,75.01
2022-10-17T19:44:07.003Z,75.11
2022-10-17T19:46:34.545Z,75.08
2022-10-17T19:49:04.455Z,75.22
2022-10-17T19:51:53.071Z,75.89
2022-10-17T19:54:56.853Z,76.65
2022-10-17T19:58:17.204Z,76.50
2022-10-17T20:01:05.427Z,75.80
2022-10-17T20:08:05.319Z,75.96
2022-10-17T20:18:49.625Z,77.32
2022-10-17T20:22:15.119Z,77.22
2022-10-17T20:29:25.197Z,77.27
2022-10-17T20:32:14.314Z,77.05
2022-10-17T20:34:41.793Z,76.79
2022-10-17T20:37:09.180Z,76.70
2022-10-17T20:39:36.575Z,76.84
2022-10-17T20:42:03.997Z,76.98
2022-10-17T20:44:31.398Z,77.27
2022-10-17T20:47:02.114Z,77.28
2022-10-17T20:49:31.242Z,77.35
2022-10-17T20:52:47.863Z,77.93
2022-10-17T20:55:34.001Z,77.09
2022-10-17T20:58:01.414Z,77.00
2022-10-17T21:00:29.004Z,77.19
2022-10-17T21:05:28.927Z,77.32
2022-10-17T21:08:11.442Z,77.20
2022-10-17T21:10:38.969Z,77.21
2022-10-17T21:13:06.363Z,77.32
2022-10-17T21:15:33.879Z,77.33
2022-10-17T21:18:01.368Z,77.28
2022-10-17T21:20:37.828Z,77.63
2022-10-17T21:23:23.107Z,76.92
2022-10-17T21:25:50.675Z,77.14
2022-10-17T21:28:18.042Z,77.18
2022-10-17T21:30:45.439Z,77.06
2022-10-17T21:33:12.866Z,77.29
2022-10-17T21:35:40.547Z,77.07
2022-10-17T21:38:07.962Z,76.92
2022-10-17T21:40:35.463Z,77.01
2022-10-17T21:43:02.868Z,76.86
2022-10-17T21:45:30.270Z,76.76
2022-10-17T21:48:13.582Z,76.91
2022-10-17T21:50:41.659Z,76.69
2022-10-17T21:53:09.268Z,76.73
2022-10-17T21:55:37.673Z,76.62
2022-10-17T21:58:05.367Z,76.56
2022-10-17T22:00:32.950Z,76.41
2022-10-17T22:03:01.231Z,76.64
2022-10-17T22:05:30.360Z,76.44
2022-10-17T22:07:57.838Z,76.26
2022-10-17T22:10:25.454Z,76.12
2022-10-17T22:12:53.019Z,76.12
2022-10-17T22:15:20.435Z,76.33
2022-10-17T22:17:47.816Z,76.10
2022-10-17T22:20:15.307Z,76.25
2022-10-17T22:22:42.705Z,75.80
2022-10-17T22:25:10.140Z,75.79
2022-10-17T22:27:37.756Z,75.77
2022-10-17T22:30:05.773Z,75.48
2022-10-17T22:32:33.266Z,75.45
2022-10-17T22:35:00.650Z,75.17
2022-10-17T22:37:28.332Z,75.14
2022-10-17T22:39:55.863Z,74.84
2022-10-17T22:42:23.420Z,74.74
2022-10-17T22:44:50.863Z,74.57
2022-10-17T22:47:18.251Z,74.37
2022-10-17T22:49:45.632Z,74.28
2022-10-17T22:52:13.115Z,74.13
2022-10-17T22:54:40.515Z,74.09
2022-10-17T22:57:10.404Z,73.90
2022-10-17T22:59:37.932Z,73.59
2022-10-17T23:02:05.408Z,73.39
2022-10-17T23:04:33.529Z,73.47
2022-10-17T23:07:00.923Z,73.40
2022-10-17T23:09:28.621Z,73.38
2022-10-17T23:11:56.022Z,73.31
2022-10-17T23:14:23.497Z,73.08
2022-10-17T23:16:51.002Z,72.98
2022-10-17T23:19:18.578Z,73.01
2022-10-17T23:21:46.076Z,72.92
2022-10-17T23:24:13.598Z,72.67
2022-10-17T23:26:40.999Z,72.72
2022-10-17T23:29:08.451Z,72.71
2022-10-17T23:31:35.892Z,72.60
2022-10-17T23:34:03.469Z,73.15
2022-10-17T23:39:03.758Z,72.89
2022-10-17T23:41:31.420Z,73.04
2022-10-17T23:43:59.230Z,73.08
2022-10-17T23:46:26.668Z,73.24
2022-10-17T23:48:54.184Z,73.43
2022-10-17T23:51:21.838Z,73.57
2022-10-17T23:53:49.619Z,73.59
2022-10-17T23:56:17.058Z,73.57
2022-10-17T23:58:44.592Z,73.44
